createdAt,value
2019-02-27T00:01:02.008Z,25.20
2019-02-27T00:03:31.297Z,25.05
2019-02-27T00:06:00.560Z,32.33
2019-02-27T00:08:29.609Z,25.27
2019-02-27T00:10:58.626Z,25.40
2019-02-27T00:13:27.504Z,21.85
2019-02-27T00:15:56.505Z,22.87
2019-02-27T00:18:25.185Z,22.48
2019-02-27T00:20:54.321Z,21.48
2019-02-27T00:23:24.055Z,19.25
2019-02-27T00:25:53.577Z,17.20
2019-02-27T00:28:23.449Z,20.10
2019-02-27T00:30:52.793Z,20.32
2019-02-27T00:33:25.031Z,22.10
2019-02-27T00:35:52.041Z,24.18
2019-02-27T00:38:22.734Z,23.32
2019-02-27T00:40:51.384Z,22.85
2019-02-27T00:43:20.240Z,24.77
2019-02-27T00:45:49.370Z,17.92
2019-02-27T00:48:18.168Z,18.32
2019-02-27T00:50:46.840Z,24.98
2019-02-27T00:53:15.568Z,28.15
2019-02-27T00:55:44.488Z,15.55
2019-02-27T00:58:13.305Z,19.10
2019-02-27T01:00:41.985Z,26.55
2019-02-27T01:03:10.688Z,18.52
2019-02-27T01:05:41.119Z,16.00
2019-02-27T01:08:09.786Z,16.97
2019-02-27T01:10:38.593Z,20.88
2019-02-27T01:13:07.441Z,27.32
2019-02-27T01:15:36.160Z,22.02
2019-02-27T01:18:04.961Z,18.07
2019-02-27T01:20:33.928Z,23.92
2019-02-27T01:23:02.664Z,38.58
2019-02-27T01:25:31.552Z,31.87
2019-02-27T01:28:01.664Z,22.27
2019-02-27T01:30:30.496Z,25.35
2019-02-27T01:33:03.920Z,22.85
2019-02-27T01:35:29.824Z,21.52
2019-02-27T01:37:58.570Z,20.12
2019-02-27T01:40:27.354Z,18.75
2019-02-27T01:42:56.067Z,19.62
2019-02-27T01:45:25.065Z,22.35
2019-02-27T01:47:53.991Z,21.02
2019-02-27T01:50:28.512Z,19.17
2019-02-27T01:52:57.280Z,22.82
2019-02-27T01:55:26.016Z,24.50
2019-02-27T01:57:54.723Z,26.62
2019-02-27T02:00:23.982Z,18.98
2019-02-27T02:02:52.760Z,15.43
2019-02-27T02:05:26.350Z,21.12
2019-02-27T02:07:52.024Z,19.73
2019-02-27T02:10:20.707Z,17.05
2019-02-27T02:12:55.889Z,28.12
2019-02-27T02:15:27.904Z,22.87
2019-02-27T02:18:25.577Z,21.68
2019-02-27T02:21:14.388Z,23.75
2019-02-27T02:24:07.377Z,18.75
2019-02-27T02:26:48.041Z,26.75
2019-02-27T02:29:53.001Z,25.70
2019-02-27T02:32:52.317Z,17.77
2019-02-27T02:35:49.740Z,37.83
2019-02-27T02:38:31.607Z,26.87
2019-02-27T02:41:26.661Z,21.10
2019-02-27T02:44:01.001Z,21.87
2019-02-27T02:46:45.467Z,19.27
2019-02-27T02:49:42.080Z,18.85
2019-02-27T02:52:40.775Z,18.37
2019-02-27T02:55:33.096Z,23.47
2019-02-27T02:58:14.073Z,29.05
2019-02-27T03:00:51.832Z,25.08
2019-02-27T03:03:36.996Z,16.45
2019-02-27T03:06:25.401Z,24.77
2019-02-27T03:08:59.945Z,21.40
2019-02-27T03:11:34.378Z,15.45
2019-02-27T03:14:30.675Z,28.83
2019-02-27T03:17:26.986Z,34.88
2019-02-27T03:20:01.595Z,34.00
2019-02-27T03:22:40.341Z,33.67
2019-02-27T03:25:13.001Z,26.35
2019-02-27T03:28:05.079Z,22.02
2019-02-27T03:30:52.889Z,34.13
2019-02-27T03:33:27.115Z,22.40
2019-02-27T03:36:07.049Z,20.72
2019-02-27T03:38:47.985Z,18.87
2019-02-27T03:41:37.930Z,20.88
2019-02-27T03:44:35.561Z,19.73
2019-02-27T03:47:16.597Z,18.48
2019-02-27T03:49:52.834Z,21.62
2019-02-27T03:52:52.315Z,18.32
2019-02-27T03:55:33.191Z,13.25
2019-02-27T03:58:21.417Z,24.05
2019-02-27T04:01:02.032Z,21.45
2019-02-27T04:03:45.516Z,18.52
2019-02-27T04:06:21.468Z,19.48
2019-02-27T04:08:57.293Z,16.55
2019-02-27T04:11:26.136Z,17.35
2019-02-27T04:13:54.831Z,15.38
2019-02-27T04:16:28.966Z,18.42
2019-02-27T04:18:54.033Z,22.32
2019-02-27T04:21:25.339Z,18.42
2019-02-27T04:23:53.096Z,18.55
2019-02-27T04:26:21.896Z,12.82
2019-02-27T04:28:50.736Z,19.98
2019-02-27T04:31:19.473Z,13.70
2019-02-27T04:33:48.344Z,18.05
2019-02-27T04:36:17.488Z,9.88
2019-02-27T04:38:46.272Z,13.75
2019-02-27T04:41:17.801Z,18.67
2019-02-27T04:43:45.569Z,20.82
2019-02-27T04:46:14.361Z,14.65
2019-02-27T04:48:43.265Z,16.20
2019-02-27T04:51:11.975Z,18.60
2019-02-27T04:53:40.865Z,15.93
2019-02-27T04:56:09.672Z,15.78
2019-02-27T04:58:42.789Z,14.50
2019-02-27T05:01:08.890Z,16.05
2019-02-27T05:03:37.769Z,10.95
2019-02-27T05:06:06.466Z,11.83
2019-02-27T05:08:35.168Z,11.38
2019-02-27T05:11:03.911Z,12.40
2019-02-27T05:13:34.521Z,9.65
2019-02-27T05:16:03.234Z,10.82
2019-02-27T05:18:31.971Z,13.28
2019-02-27T05:21:00.648Z,15.32
2019-02-27T05:23:30.941Z,12.85
2019-02-27T05:25:59.865Z,14.85
2019-02-27T05:28:28.873Z,17.70
2019-02-27T05:30:57.608Z,15.60
2019-02-27T05:33:26.361Z,16.30
2019-02-27T05:35:57.243Z,14.23
2019-02-27T05:38:25.457Z,13.48
2019-02-27T05:40:54.248Z,14.60
2019-02-27T05:43:22.992Z,11.08
2019-02-27T05:45:51.696Z,11.18
2019-02-27T05:48:20.639Z,8.70
2019-02-27T05:50:49.479Z,10.18
2019-02-27T05:53:22.119Z,12.75
2019-02-27T05:55:48.640Z,13.60
2019-02-27T05:58:17.376Z,12.30
2019-02-27T06:00:46.424Z,11.43
2019-02-27T06:03:15.884Z,10.08
2019-02-27T06:05:49.508Z,11.45
2019-02-27T06:08:16.055Z,13.03
2019-02-27T06:10:44.753Z,11.05
2019-02-27T06:13:14.162Z,12.82
2019-02-27T06:15:43.955Z,8.83
2019-02-27T06:18:12.673Z,10.18
2019-02-27T06:20:41.941Z,11.38
2019-02-27T06:23:11.497Z,6.33
2019-02-27T06:25:40.232Z,6.75
2019-02-27T06:28:09.233Z,9.13
2019-02-27T06:30:38.089Z,12.45
2019-02-27T06:33:06.744Z,12.63
2019-02-27T06:35:35.577Z,11.97
2019-02-27T06:38:04.648Z,10.18
2019-02-27T06:40:33.520Z,14.87
2019-02-27T06:43:02.344Z,10.13
2019-02-27T06:45:31.143Z,8.90
2019-02-27T06:47:59.880Z,10.63
2019-02-27T06:50:28.688Z,13.75
2019-02-27T06:52:57.491Z,9.33
2019-02-27T06:55:28.075Z,10.68
2019-02-27T06:57:56.569Z,7.85
2019-02-27T07:00:26.000Z,13.25
2019-02-27T07:02:55.605Z,9.88
2019-02-27T07:05:24.952Z,7.60
2019-02-27T07:07:53.704Z,8.75
2019-02-27T07:10:22.481Z,10.72
2019-02-27T07:12:54.447Z,9.68
2019-02-27T07:15:22.829Z,10.40
2019-02-27T07:17:53.112Z,7.58
2019-02-27T07:20:24.349Z,14.65
2019-02-27T07:22:52.232Z,10.48
2019-02-27T07:25:21.177Z,8.90
2019-02-27T07:27:49.946Z,9.88
2019-02-27T07:30:19.714Z,15.43
2019-02-27T07:32:48.576Z,4.03
2019-02-27T07:35:25.192Z,10.03
2019-02-27T07:37:51.032Z,4.72
2019-02-27T07:40:20.824Z,4.50
2019-02-27T07:42:49.616Z,5.60
2019-02-27T07:45:19.880Z,9.30
2019-02-27T07:47:48.623Z,10.05
2019-02-27T07:50:18.672Z,12.47
2019-02-27T07:52:47.699Z,6.50
2019-02-27T07:55:21.911Z,7.83
2019-02-27T07:57:48.092Z,12.58
2019-02-27T08:00:19.311Z,4.40
2019-02-27T08:02:48.095Z,3.27
2019-02-27T08:05:16.848Z,6.53
2019-02-27T08:07:48.683Z,7.35
2019-02-27T08:10:18.151Z,7.37
2019-02-27T08:12:47.113Z,8.58
2019-02-27T08:15:17.737Z,12.20
2019-02-27T08:17:46.523Z,8.23
2019-02-27T08:20:20.098Z,8.08
2019-02-27T08:22:46.465Z,5.83
2019-02-27T08:25:18.893Z,9.98
2019-02-27T08:27:49.191Z,7.97
2019-02-27T08:30:24.244Z,6.12
2019-02-27T08:32:53.001Z,8.63
2019-02-27T08:35:21.728Z,11.12
2019-02-27T08:37:50.458Z,5.45
2019-02-27T08:40:24.428Z,5.95
2019-02-27T08:42:49.865Z,9.25
2019-02-27T08:45:26.583Z,6.40
2019-02-27T08:47:51.938Z,8.65
2019-02-27T08:50:22.863Z,6.40
2019-02-27T08:52:51.935Z,9.15
2019-02-27T08:55:22.615Z,7.45
2019-02-27T08:57:56.056Z,11.93
2019-02-27T09:00:24.961Z,7.40
2019-02-27T09:02:55.542Z,6.95
2019-02-27T09:05:24.099Z,5.45
2019-02-27T09:07:52.803Z,9.28
2019-02-27T09:10:26.826Z,8.50
2019-02-27T09:13:04.948Z,7.47
2019-02-27T09:15:26.352Z,7.33
2019-02-27T09:17:55.263Z,4.87
2019-02-27T09:20:24.712Z,6.15
2019-02-27T09:22:53.601Z,6.28
2019-02-27T09:25:24.616Z,3.77
2019-02-27T09:27:52.784Z,6.22
2019-02-27T09:30:28.874Z,3.83
2019-02-27T09:32:56.359Z,6.75
2019-02-27T09:35:25.097Z,5.60
2019-02-27T09:37:53.841Z,6.28
2019-02-27T09:40:29.395Z,6.62
2019-02-27T09:43:01.696Z,4.97
2019-02-27T09:45:35.292Z,4.40
2019-02-27T09:48:04.631Z,4.87
2019-02-27T09:50:42.336Z,3.42
2019-02-27T09:53:11.136Z,9.28
2019-02-27T09:55:39.832Z,5.78
2019-02-27T09:58:11.344Z,3.58
2019-02-27T10:00:51.598Z,3.72
2019-02-27T10:03:21.529Z,6.75
2019-02-27T10:05:50.464Z,6.03
2019-02-27T10:08:19.197Z,4.45
2019-02-27T10:10:48.120Z,8.25
2019-02-27T10:13:17.033Z,6.10
2019-02-27T10:15:45.800Z,4.92
2019-02-27T10:18:18.121Z,3.87
2019-02-27T10:20:45.001Z,6.05
2019-02-27T10:23:13.672Z,5.95
2019-02-27T10:25:43.585Z,7.85
2019-02-27T10:28:12.900Z,8.13
2019-02-27T10:30:41.576Z,8.93
2019-02-27T10:33:11.156Z,5.28
2019-02-27T10:35:40.775Z,5.67
2019-02-27T10:38:09.456Z,6.40
2019-02-27T10:40:38.208Z,7.25
2019-02-27T10:43:06.913Z,8.18
2019-02-27T10:45:35.624Z,9.03
2019-02-27T10:48:04.512Z,8.38
2019-02-27T10:50:35.555Z,4.17
2019-02-27T10:53:03.619Z,5.78
2019-02-27T10:55:33.104Z,9.70
2019-02-27T10:58:02.030Z,6.37
2019-02-27T11:00:33.471Z,4.58
2019-02-27T11:03:02.454Z,7.12
2019-02-27T11:05:40.568Z,5.22
2019-02-27T11:08:09.255Z,5.40
2019-02-27T11:10:37.960Z,7.30
2019-02-27T11:13:07.095Z,6.58
2019-02-27T11:15:38.734Z,7.28
2019-02-27T11:18:06.295Z,7.58
2019-02-27T11:20:35.040Z,8.45
2019-02-27T11:23:06.646Z,5.08
2019-02-27T11:25:34.104Z,4.95
2019-02-27T11:28:03.066Z,6.50
2019-02-27T11:30:37.072Z,8.08
2019-02-27T11:33:06.177Z,8.48
2019-02-27T11:35:34.913Z,8.65
2019-02-27T11:38:03.656Z,9.45
2019-02-27T11:40:32.423Z,9.00
2019-02-27T11:43:01.263Z,9.78
2019-02-27T11:45:29.992Z,11.65
2019-02-27T11:47:58.783Z,5.78
2019-02-27T11:50:28.098Z,6.90
2019-02-27T11:53:01.932Z,6.03
2019-02-27T11:55:27.215Z,6.67
2019-02-27T11:57:56.007Z,5.70
2019-02-27T12:00:26.984Z,6.37
2019-02-27T12:02:55.816Z,8.08
2019-02-27T12:05:24.647Z,6.85
2019-02-27T12:07:53.409Z,9.30
2019-02-27T12:10:27.104Z,7.53
2019-02-27T12:12:59.688Z,4.67
2019-02-27T12:15:27.290Z,4.40
2019-02-27T12:17:59.944Z,4.17
2019-02-27T12:20:26.695Z,5.70
2019-02-27T12:22:55.409Z,7.83
2019-02-27T12:25:26.888Z,7.45
2019-02-27T12:27:56.136Z,7.67
2019-02-27T12:30:27.216Z,8.90
2019-02-27T12:32:56.935Z,4.75
2019-02-27T12:35:29.057Z,10.80
2019-02-27T12:37:57.839Z,6.30
2019-02-27T12:40:26.560Z,5.67
2019-02-27T12:42:55.290Z,3.83
2019-02-27T12:45:29.746Z,3.47
2019-02-27T12:47:58.728Z,3.10
2019-02-27T12:50:31.558Z,6.87
2019-02-27T12:53:00.564Z,4.10
2019-02-27T12:55:29.343Z,4.67
2019-02-27T12:57:58.048Z,6.87
2019-02-27T13:00:31.836Z,5.97
2019-02-27T13:03:00.561Z,6.28
2019-02-27T13:05:29.376Z,4.45
2019-02-27T13:07:58.304Z,6.72
2019-02-27T13:10:33.067Z,4.17
2019-02-27T13:12:57.976Z,5.12
2019-02-27T13:15:27.866Z,4.87
2019-02-27T13:17:57.890Z,8.50
2019-02-27T13:20:36.585Z,8.13
2019-02-27T13:23:05.554Z,5.55
2019-02-27T13:25:35.753Z,6.28
2019-02-27T13:28:04.496Z,6.17
2019-02-27T13:30:33.209Z,8.53
2019-02-27T13:33:02.234Z,9.48
2019-02-27T13:35:31.306Z,7.17
2019-02-27T13:38:00.035Z,7.28
2019-02-27T13:40:34.936Z,6.80
2019-02-27T13:43:01.361Z,8.88
2019-02-27T13:45:34.344Z,9.88
2019-02-27T13:48:05.882Z,7.58
2019-02-27T13:50:33.513Z,9.75
2019-02-27T13:53:02.442Z,8.23
2019-02-27T13:55:31.223Z,9.15
2019-02-27T13:58:03.456Z,8.00
2019-02-27T14:00:37.722Z,9.80
2019-02-27T14:03:06.505Z,9.63
2019-02-27T14:05:36.215Z,8.08
2019-02-27T14:08:05.178Z,8.63
2019-02-27T14:10:34.401Z,8.18
2019-02-27T14:13:03.320Z,10.13
2019-02-27T14:15:32.060Z,8.80
2019-02-27T14:18:02.313Z,9.08
2019-02-27T14:20:31.338Z,16.30
2019-02-27T14:23:00.134Z,10.75
2019-02-27T14:25:33.359Z,13.35
2019-02-27T14:28:02.547Z,12.23
2019-02-27T14:30:40.440Z,12.90
2019-02-27T14:33:10.973Z,15.63
2019-02-27T14:35:40.018Z,13.58
2019-02-27T14:38:08.752Z,14.80
2019-02-27T14:40:40.927Z,18.45
2019-02-27T14:43:08.031Z,16.02
2019-02-27T14:45:40.623Z,20.68
2019-02-27T14:48:09.874Z,17.62
2019-02-27T14:50:38.800Z,13.70
2019-02-27T14:53:07.722Z,14.90
2019-02-27T14:55:37.420Z,13.70
2019-02-27T14:58:06.465Z,16.00
2019-02-27T15:00:39.653Z,16.05
2019-02-27T15:03:07.690Z,12.98
2019-02-27T15:05:37.258Z,11.97
2019-02-27T15:08:07.354Z,13.80
2019-02-27T15:10:40.187Z,15.05
2019-02-27T15:13:08.529Z,14.10
2019-02-27T15:15:37.577Z,13.95
2019-02-27T15:18:06.992Z,12.33
2019-02-27T15:20:39.897Z,15.58
2019-02-27T15:23:06.440Z,17.30
2019-02-27T15:25:35.864Z,15.48
2019-02-27T15:28:04.812Z,16.05
2019-02-27T15:30:34.256Z,18.23
2019-02-27T15:33:05.269Z,21.93
2019-02-27T15:35:34.544Z,14.40
2019-02-27T15:38:03.592Z,24.07
2019-02-27T15:40:32.528Z,19.00
2019-02-27T15:43:10.745Z,19.87
2019-02-27T15:45:32.105Z,19.82
2019-02-27T15:48:03.808Z,18.50
2019-02-27T15:50:36.023Z,20.77
2019-02-27T15:53:04.896Z,17.92
2019-02-27T15:55:35.449Z,18.62
2019-02-27T15:58:09.856Z,18.10
2019-02-27T16:00:38.689Z,18.85
2019-02-27T16:03:10.858Z,20.80
2019-02-27T16:05:40.066Z,16.95
2019-02-27T16:08:08.593Z,14.38
2019-02-27T16:10:42.697Z,25.65
2019-02-27T16:13:07.906Z,22.58
2019-02-27T16:15:36.827Z,24.85
2019-02-27T16:18:06.176Z,23.50
2019-02-27T16:20:35.080Z,25.30
2019-02-27T16:23:05.093Z,20.57
2019-02-27T16:25:34.471Z,16.67
2019-02-27T16:28:03.434Z,19.10
2019-02-27T16:30:33.546Z,17.87
2019-02-27T16:33:02.480Z,18.25
2019-02-27T16:35:32.176Z,15.88
2019-02-27T16:38:01.172Z,18.77
2019-02-27T16:40:30.897Z,14.90
2019-02-27T16:42:59.784Z,19.32
2019-02-27T16:45:36.776Z,14.63
2019-02-27T16:48:05.665Z,21.17
2019-02-27T16:50:34.633Z,20.17
2019-02-27T16:53:23.185Z,16.07
2019-02-27T16:55:52.289Z,26.57
2019-02-27T16:58:22.740Z,14.53
2019-02-27T17:00:54.163Z,17.17
2019-02-27T17:03:23.930Z,17.42
2019-02-27T17:05:53.001Z,15.45
2019-02-27T17:08:22.056Z,15.85
2019-02-27T17:10:51.953Z,14.85
2019-02-27T17:13:21.580Z,13.62
2019-02-27T17:15:50.754Z,13.28
2019-02-27T17:18:19.665Z,13.80
2019-02-27T17:20:48.619Z,16.10
2019-02-27T17:23:20.825Z,12.80
2019-02-27T17:25:50.874Z,18.80
2019-02-27T17:28:19.864Z,19.37
2019-02-27T17:30:48.840Z,17.62
2019-02-27T17:33:17.972Z,12.20
2019-02-27T17:35:47.090Z,15.10
2019-02-27T17:38:16.209Z,12.00
2019-02-27T17:40:45.319Z,11.85
2019-02-27T17:43:14.178Z,8.63
2019-02-27T17:45:44.286Z,12.45
2019-02-27T17:48:13.625Z,8.73
2019-02-27T17:50:42.336Z,16.10
2019-02-27T17:53:11.145Z,16.20
2019-02-27T17:55:41.584Z,16.52
2019-02-27T17:58:10.418Z,16.05
2019-02-27T18:00:41.042Z,14.40
2019-02-27T18:03:10.073Z,15.20
2019-02-27T18:05:38.849Z,20.30
2019-02-27T18:08:07.801Z,18.82
2019-02-27T18:10:37.627Z,21.77
2019-02-27T18:13:07.738Z,37.80
2019-02-27T18:15:36.920Z,29.92
2019-02-27T18:18:10.528Z,23.20
2019-02-27T18:20:38.898Z,25.77
2019-02-27T18:23:08.626Z,27.42
2019-02-27T18:25:41.119Z,17.15
2019-02-27T18:28:08.897Z,14.45
2019-02-27T18:30:38.177Z,23.22
2019-02-27T18:33:07.194Z,18.60
2019-02-27T18:35:36.315Z,18.48
2019-02-27T18:38:05.369Z,9.35
2019-02-27T18:40:35.730Z,13.70
2019-02-27T18:43:06.097Z,13.35
2019-02-27T18:45:36.297Z,16.20
2019-02-27T18:48:07.276Z,15.75
2019-02-27T18:50:38.841Z,13.60
2019-02-27T18:53:13.059Z,18.15
2019-02-27T18:55:41.817Z,14.30
2019-02-27T18:58:18.109Z,8.93
2019-02-27T19:00:49.569Z,11.35
2019-02-27T19:03:25.893Z,13.08
2019-02-27T19:05:57.065Z,16.35
2019-02-27T19:08:28.805Z,12.03
2019-02-27T19:10:59.385Z,14.63
2019-02-27T19:13:31.682Z,16.05
2019-02-27T19:16:02.523Z,11.83
2019-02-27T19:18:33.658Z,10.95
2019-02-27T19:21:05.754Z,6.75
2019-02-27T19:23:35.769Z,11.25
2019-02-27T19:26:06.354Z,10.13
2019-02-27T19:28:38.377Z,9.68
2019-02-27T19:31:09.306Z,14.80
2019-02-27T19:33:42.034Z,15.85
2019-02-27T19:36:19.084Z,9.43
2019-02-27T19:38:47.541Z,13.85
2019-02-27T19:41:20.850Z,9.48
2019-02-27T19:43:54.956Z,13.15
2019-02-27T19:46:22.297Z,12.37
2019-02-27T19:48:54.909Z,9.03
2019-02-27T19:51:25.192Z,12.63
2019-02-27T19:53:56.459Z,11.48
2019-02-27T19:56:26.070Z,9.75
2019-02-27T19:58:56.430Z,11.53
2019-02-27T20:01:25.816Z,8.78
2019-02-27T20:03:54.680Z,14.25
2019-02-27T20:06:24.653Z,12.50
2019-02-27T20:08:53.937Z,9.70
2019-02-27T20:11:22.930Z,18.70
2019-02-27T20:13:53.994Z,11.75
2019-02-27T20:16:23.705Z,13.35
2019-02-27T20:18:55.141Z,13.15
2019-02-27T20:21:23.145Z,12.47
2019-02-27T20:24:01.072Z,9.65
2019-02-27T20:26:25.560Z,12.80
2019-02-27T20:28:54.279Z,9.25
2019-02-27T20:31:23.398Z,17.23
2019-02-27T20:33:52.712Z,18.57
2019-02-27T20:36:21.811Z,28.45
2019-02-27T20:38:52.305Z,40.35
2019-02-27T20:41:21.540Z,35.80
2019-02-27T20:43:50.684Z,25.92
2019-02-27T20:46:19.969Z,25.32
2019-02-27T20:48:49.802Z,28.17
2019-02-27T20:51:19.122Z,14.60
2019-02-27T20:53:48.089Z,26.90
2019-02-27T20:56:16.785Z,27.67
2019-02-27T20:58:51.123Z,23.45
2019-02-27T21:01:16.737Z,17.75
2019-02-27T21:03:46.081Z,19.07
2019-02-27T21:06:15.337Z,17.35
2019-02-27T21:08:44.928Z,18.90
2019-02-27T21:11:14.080Z,12.15
2019-02-27T21:13:43.744Z,18.07
2019-02-27T21:16:13.201Z,15.98
2019-02-27T21:18:44.113Z,14.23
2019-02-27T21:21:13.561Z,22.85
2019-02-27T21:23:43.321Z,16.25
2019-02-27T21:26:12.323Z,16.40
2019-02-27T21:28:41.737Z,19.90
2019-02-27T21:31:11.099Z,13.58
2019-02-27T21:33:42.433Z,21.65
2019-02-27T21:36:12.840Z,21.23
2019-02-27T21:38:41.858Z,25.17
2019-02-27T21:41:15.113Z,25.70
2019-02-27T21:43:45.280Z,26.77
2019-02-27T21:46:15.841Z,23.25
2019-02-27T21:48:46.750Z,17.55
2019-02-27T21:51:18.528Z,8.68
2019-02-27T21:53:50.049Z,41.23
2019-02-27T21:56:20.264Z,43.20
2019-02-27T21:58:50.076Z,41.10
2019-02-27T22:01:22.022Z,28.92
2019-02-27T22:03:50.328Z,26.12
2019-02-27T22:06:21.595Z,24.67
2019-02-27T22:08:50.168Z,25.17
2019-02-27T22:11:24.279Z,27.10
2019-02-27T22:13:52.721Z,26.00
2019-02-27T22:16:21.553Z,32.42
2019-02-27T22:18:50.384Z,28.55
2019-02-27T22:21:19.480Z,26.90
2019-02-27T22:23:48.288Z,26.52
2019-02-27T22:26:20.274Z,28.85
2019-02-27T22:28:51.174Z,26.00
2019-02-27T22:31:22.843Z,33.53
2019-02-27T22:33:56.223Z,27.15
2019-02-27T22:36:23.768Z,15.03
2019-02-27T22:38:52.504Z,17.48
2019-02-27T22:41:21.569Z,26.40
2019-02-27T22:43:50.312Z,23.85
2019-02-27T22:46:19.224Z,29.45
2019-02-27T22:48:48.064Z,30.25
2019-02-27T22:51:17.032Z,16.20
2019-02-27T22:53:48.577Z,30.02
2019-02-27T22:56:17.553Z,20.35
2019-02-27T22:58:46.472Z,28.80
2019-02-27T23:01:19.769Z,22.70
2019-02-27T23:03:54.931Z,42.88
2019-02-27T23:06:27.232Z,25.75
2019-02-27T23:08:56.235Z,33.88
2019-02-27T23:11:24.963Z,24.25
2019-02-27T23:13:55.617Z,25.57
2019-02-27T23:16:24.624Z,29.37
2019-02-27T23:18:53.612Z,25.10
2019-02-27T23:21:22.680Z,27.50
2019-02-27T23:23:51.562Z,33.02
2019-02-27T23:26:21.020Z,25.17
2019-02-27T23:28:51.481Z,32.63
2019-02-27T23:31:23.403Z,30.95
2019-02-27T23:33:51.697Z,20.30
2019-02-27T23:36:22.021Z,19.62
2019-02-27T23:38:51.585Z,26.55
2019-02-27T23:41:23.157Z,26.90
2019-02-27T23:43:51.290Z,26.70
2019-02-27T23:46:20.572Z,24.18
2019-02-27T23:48:49.529Z,23.70
2019-02-27T23:51:18.480Z,27.80
2019-02-27T23:53:47.296Z,18.70
2019-02-27T23:56:19.564Z,25.75
2019-02-27T23:58:47.840Z,23.90
